Portada
METAR-TAF:

METAR-TAF

Aeroports :

Bridgetown, Barbados

latitud: 13-04N, longitud: 059-29W, altitud: 50 m

Observació

L'informe es va fer fa 45 minuts, a les 11:00 UTC
Vent 14 kt del Est
Temperatura 28°C
Humitat 74%
Pressió 1015 hPa
Visibilitat 10 km o més
Núvols disperses a una alçada de 1800 ft

METAR: TBPB 031100Z 10014KT 9999 SCT018 28/23 Q1015 NOSIG

Hora: 07:45 (11:45 UTC)

Pronòstic

L'informe es va fer fa 45 minuts, a les 11:00 UTC
Pronòstic vàlid del 03 a les 12 UTC al 04 a les 12 UTC
Vent 16 kt del Est
Visibilitat 10 km o més
Núvols disperses a una alçada de 2000 ft

TAF: TBPB 031100Z 0312/0412 10016KT 9999 SCT020

Observacions i pronòstics meteorològics de més de 4000 aeroports (METAR i TAF).

Les estacions disponibles són els punts grocs i vermells al mapa.

Posi el ratolí al punt desitjat per veure el nom de l'estació.

Feu clic per veure les observacions i els pronòstics meteorològics.

Per canviar el mapa: feu clic els botons verds amb una creu de color negre per apropar; al botó verd amb un guió per allunyar la imatge; o en les fletxes verdes per a mapes adjacents.


METAR-TAF: